sensor_id;sensor_type;location;lat;lon;timestamp;pressure;altitude;pressure_sealevel;temperature;humidity
23635;BME280;11994;51.038;16.974;2022-08-03T00:00:07;100336.31;;;18.78;67.15
23635;BME280;11994;51.038;16.974;2022-08-03T00:02:33;100335.70;;;18.73;67.29
23635;BME280;11994;51.038;16.974;2022-08-03T00:04:59;100342.13;;;18.69;67.39
23635;BME280;11994;51.038;16.974;2022-08-03T00:07:25;100339.80;;;18.63;67.55
23635;BME280;11994;51.038;16.974;2022-08-03T00:09:51;100343.40;;;18.62;67.77
23635;BME280;11994;51.038;16.974;2022-08-03T00:12:16;100336.04;;;18.67;68.09
23635;BME280;11994;51.038;16.974;2022-08-03T00:14:42;100341.33;;;18.76;68.12
23635;BME280;11994;51.038;16.974;2022-08-03T00:17:08;100349.36;;;18.83;68.27
23635;BME280;11994;51.038;16.974;2022-08-03T00:19:34;100342.75;;;18.90;68.25
23635;BME280;11994;51.038;16.974;2022-08-03T00:22:00;100344.57;;;18.89;68.14
23635;BME280;11994;51.038;16.974;2022-08-03T00:24:25;100341.11;;;18.87;68.12
23635;BME280;11994;51.038;16.974;2022-08-03T00:26:51;100341.38;;;18.83;68.09
23635;BME280;11994;51.038;16.974;2022-08-03T00:29:17;100343.91;;;18.77;68.07
23635;BME280;11994;51.038;16.974;2022-08-03T00:31:43;100343.07;;;18.68;68.14
23635;BME280;11994;51.038;16.974;2022-08-03T00:34:08;100340.29;;;18.63;68.34
23635;BME280;11994;51.038;16.974;2022-08-03T00:36:34;100342.53;;;18.62;68.45
23635;BME280;11994;51.038;16.974;2022-08-03T00:39:00;100340.29;;;18.63;68.55
23635;BME280;11994;51.038;16.974;2022-08-03T00:41:26;100336.06;;;18.59;68.57
23635;BME280;11994;51.038;16.974;2022-08-03T00:43:52;100341.77;;;18.60;68.70
23635;BME280;11994;51.038;16.974;2022-08-03T00:46:18;100338.55;;;18.62;68.73
23635;BME280;11994;51.038;16.974;2022-08-03T00:48:46;100339.27;;;18.65;68.91
23635;BME280;11994;51.038;16.974;2022-08-03T00:51:12;100342.30;;;18.66;68.84
23635;BME280;11994;51.038;16.974;2022-08-03T00:53:38;100341.13;;;18.63;68.67
23635;BME280;11994;51.038;16.974;2022-08-03T00:56:04;100339.36;;;18.55;68.69
23635;BME280;11994;51.038;16.974;2022-08-03T00:58:30;100336.88;;;18.44;68.88
23635;BME280;11994;51.038;16.974;2022-08-03T01:00:56;100335.95;;;18.36;69.18
23635;BME280;11994;51.038;16.974;2022-08-03T01:03:23;100332.76;;;18.38;69.43
23635;BME280;11994;51.038;16.974;2022-08-03T01:09:04;100331.95;;;18.36;69.40
23635;BME280;11994;51.038;16.974;2022-08-03T01:11:47;100329.10;;;18.32;69.56
23635;BME280;11994;51.038;16.974;2022-08-03T01:14:20;100333.76;;;18.27;69.65
23635;BME280;11994;51.038;16.974;2022-08-03T01:20:07;100331.75;;;18.15;69.94
23635;BME280;11994;51.038;16.974;2022-08-03T01:32:00;100327.92;;;17.95;70.39
23635;BME280;11994;51.038;16.974;2022-08-03T01:34:35;100323.55;;;17.86;70.53
23635;BME280;11994;51.038;16.974;2022-08-03T01:37:06;100325.64;;;17.79;70.70
23635;BME280;11994;51.038;16.974;2022-08-03T01:39:35;100327.22;;;17.75;70.90
23635;BME280;11994;51.038;16.974;2022-08-03T01:42:05;100318.48;;;17.73;71.13
23635;BME280;11994;51.038;16.974;2022-08-03T01:44:37;100323.30;;;17.73;71.23
23635;BME280;11994;51.038;16.974;2022-08-03T01:47:09;100321.34;;;17.68;71.20
23635;BME280;11994;51.038;16.974;2022-08-03T01:49:38;100315.65;;;17.59;71.29
23635;BME280;11994;51.038;16.974;2022-08-03T01:52:06;100316.44;;;17.52;71.42
23635;BME280;11994;51.038;16.974;2022-08-03T01:54:41;100318.98;;;17.45;71.64
23635;BME280;11994;51.038;16.974;2022-08-03T01:57:09;100316.11;;;17.41;71.87
23635;BME280;11994;51.038;16.974;2022-08-03T01:59:37;100306.54;;;17.37;72.06
23635;BME280;11994;51.038;16.974;2022-08-03T02:02:04;100307.62;;;17.33;72.16
23635;BME280;11994;51.038;16.974;2022-08-03T02:04:32;100305.52;;;17.31;72.28
23635;BME280;11994;51.038;16.974;2022-08-03T02:07:00;100311.37;;;17.29;72.34
23635;BME280;11994;51.038;16.974;2022-08-03T02:09:28;100306.38;;;17.23;72.43
23635;BME280;11994;51.038;16.974;2022-08-03T02:11:55;100307.70;;;17.23;72.59
23635;BME280;11994;51.038;16.974;2022-08-03T02:14:22;100305.82;;;17.25;72.74
23635;BME280;11994;51.038;16.974;2022-08-03T02:16:49;100307.78;;;17.30;72.90
23635;BME280;11994;51.038;16.974;2022-08-03T02:19:17;100308.22;;;17.40;73.15
23635;BME280;11994;51.038;16.974;2022-08-03T02:21:44;100302.92;;;17.48;73.10
23635;BME280;11994;51.038;16.974;2022-08-03T02:24:11;100301.05;;;17.50;72.84
23635;BME280;11994;51.038;16.974;2022-08-03T02:26:38;100305.02;;;17.50;72.76
23635;BME280;11994;51.038;16.974;2022-08-03T02:29:10;100300.27;;;17.48;72.83
23635;BME280;11994;51.038;16.974;2022-08-03T02:31:41;100299.81;;;17.49;72.96
23635;BME280;11994;51.038;16.974;2022-08-03T02:34:11;100304.08;;;17.51;73.00
23635;BME280;11994;51.038;16.974;2022-08-03T02:36:39;100304.08;;;17.51;72.98
23635;BME280;11994;51.038;16.974;2022-08-03T02:39:10;100307.78;;;17.49;72.99
23635;BME280;11994;51.038;16.974;2022-08-03T02:41:41;100299.81;;;17.49;72.97
23635;BME280;11994;51.038;16.974;2022-08-03T02:44:11;100304.95;;;17.43;73.01
23635;BME280;11994;51.038;16.974;2022-08-03T02:46:44;100306.66;;;17.44;73.12
23635;BME280;11994;51.038;16.974;2022-08-03T02:49:09;100307.21;;;17.42;73.16
23635;BME280;11994;51.038;16.974;2022-08-03T02:51:37;100308.16;;;17.41;73.28
23635;BME280;11994;51.038;16.974;2022-08-03T02:54:05;100308.92;;;17.43;73.35
23635;BME280;11994;51.038;16.974;2022-08-03T02:56:34;100311.51;;;17.45;73.33
23635;BME280;11994;51.038;16.974;2022-08-03T02:59:01;100311.76;;;17.49;73.37
23635;BME280;11994;51.038;16.974;2022-08-03T03:01:29;100318.99;;;17.54;73.47
23635;BME280;11994;51.038;16.974;2022-08-03T03:03:56;100308.80;;;17.55;73.34
23635;BME280;11994;51.038;16.974;2022-08-03T03:06:24;100313.16;;;17.56;73.34
23635;BME280;11994;51.038;16.974;2022-08-03T03:08:52;100312.84;;;17.53;73.28
23635;BME280;11994;51.038;16.974;2022-08-03T03:11:20;100312.14;;;17.50;73.28
23635;BME280;11994;51.038;16.974;2022-08-03T03:13:48;100319.92;;;17.44;73.32
23635;BME280;11994;51.038;16.974;2022-08-03T03:16:15;100318.83;;;17.40;73.38
23635;BME280;11994;51.038;16.974;2022-08-03T03:18:43;100307.87;;;17.37;73.58
23635;BME280;11994;51.038;16.974;2022-08-03T03:21:10;100315.23;;;17.41;73.67
23635;BME280;11994;51.038;16.974;2022-08-03T03:23:37;100315.00;;;17.45;73.64
23635;BME280;11994;51.038;16.974;2022-08-03T03:26:06;100319.23;;;17.49;73.83
23635;BME280;11994;51.038;16.974;2022-08-03T03:28:33;100315.64;;;17.50;73.67
23635;BME280;11994;51.038;16.974;2022-08-03T03:31:05;100315.64;;;17.50;73.65
23635;BME280;11994;51.038;16.974;2022-08-03T03:33:37;100319.30;;;17.48;73.68
23635;BME280;11994;51.038;16.974;2022-08-03T03:36:00;100323.38;;;17.46;73.67
23635;BME280;11994;51.038;16.974;2022-08-03T03:38:28;100319.53;;;17.43;73.66
23635;BME280;11994;51.038;16.974;2022-08-03T03:40:54;100317.05;;;17.40;73.90
23635;BME280;11994;51.038;16.974;2022-08-03T03:43:21;100319.70;;;17.40;74.04
23635;BME280;11994;51.038;16.974;2022-08-03T03:45:48;100321.55;;;17.38;74.10
23635;BME280;11994;51.038;16.974;2022-08-03T03:48:16;100310.20;;;17.35;74.20
23635;BME280;11994;51.038;16.974;2022-08-03T03:50:43;100318.23;;;17.33;74.32
23635;BME280;11994;51.038;16.974;2022-08-03T03:53:11;100315.96;;;17.34;74.43
23635;BME280;11994;51.038;16.974;2022-08-03T03:55:39;100318.48;;;17.37;74.54
23635;BME280;11994;51.038;16.974;2022-08-03T03:58:06;100320.48;;;17.42;74.63
23635;BME280;11994;51.038;16.974;2022-08-03T04:00:33;100325.94;;;17.48;74.67
23635;BME280;11994;51.038;16.974;2022-08-03T04:02:59;100323.70;;;17.49;74.64
23635;BME280;11994;51.038;16.974;2022-08-03T04:05:25;100323.98;;;17.51;74.64
23635;BME280;11994;51.038;16.974;2022-08-03T04:08:13;100327.97;;;17.51;74.67
23635;BME280;11994;51.038;16.974;2022-08-03T04:13:34;100329.22;;;17.53;74.76
23635;BME280;11994;51.038;16.974;2022-08-03T04:16:20;100328.70;;;17.55;74.86
23635;BME280;11994;51.038;16.974;2022-08-03T04:18:51;100330.09;;;17.53;74.89
23635;BME280;11994;51.038;16.974;2022-08-03T04:21:20;100328.06;;;17.50;74.97
23635;BME280;11994;51.038;16.974;2022-08-03T04:23:50;100331.73;;;17.47;75.16
23635;BME280;11994;51.038;16.974;2022-08-03T04:26:20;100332.80;;;17.43;75.26
23635;BME280;11994;51.038;16.974;2022-08-03T04:28:47;100332.34;;;17.44;75.40
23635;BME280;11994;51.038;16.974;2022-08-03T04:31:17;100337.42;;;17.48;75.58
23635;BME280;11994;51.038;16.974;2022-08-03T04:33:45;100331.55;;;17.50;75.54
23635;BME280;11994;51.038;16.974;2022-08-03T04:36:15;100332.43;;;17.51;75.74
23635;BME280;11994;51.038;16.974;2022-08-03T04:39:26;100342.42;;;17.54;75.76
23635;BME280;11994;51.038;16.974;2022-08-03T04:41:23;100341.48;;;17.55;75.85
23635;BME280;11994;51.038;16.974;2022-08-03T04:43:53;100335.66;;;17.57;75.81
23635;BME280;11994;51.038;16.974;2022-08-03T04:46:22;100350.95;;;17.61;75.90
23635;BME280;11994;51.038;16.974;2022-08-03T04:48:51;100345.71;;;17.59;75.99
23635;BME280;11994;51.038;16.974;2022-08-03T04:51:17;100351.02;;;17.59;76.02
23635;BME280;11994;51.038;16.974;2022-08-03T04:53:43;100351.16;;;17.56;76.11
23635;BME280;11994;51.038;16.974;2022-08-03T04:56:09;100354.61;;;17.58;76.24
23635;BME280;11994;51.038;16.974;2022-08-03T04:58:35;100350.95;;;17.61;76.24
23635;BME280;11994;51.038;16.974;2022-08-03T05:01:01;100350.47;;;17.61;76.27
23635;BME280;11994;51.038;16.974;2022-08-03T05:03:27;100348.19;;;17.62;76.37
23635;BME280;11994;51.038;16.974;2022-08-03T05:05:54;100352.98;;;17.64;76.51
23635;BME280;11994;51.038;16.974;2022-08-03T05:08:20;100348.06;;;17.65;76.53
23635;BME280;11994;51.038;16.974;2022-08-03T05:10:46;100347.12;;;17.66;76.52
23635;BME280;11994;51.038;16.974;2022-08-03T05:13:12;100344.63;;;17.63;76.64
23635;BME280;11994;51.038;16.974;2022-08-03T05:15:39;100339.84;;;17.61;76.87
23635;BME280;11994;51.038;16.974;2022-08-03T05:18:06;100345.47;;;17.64;77.00
23635;BME280;11994;51.038;16.974;2022-08-03T05:20:32;100345.79;;;17.66;77.08
23635;BME280;11994;51.038;16.974;2022-08-03T05:22:58;100345.09;;;17.71;77.22
23635;BME280;11994;51.038;16.974;2022-08-03T05:25:26;100341.05;;;17.81;77.39
23635;BME280;11994;51.038;16.974;2022-08-03T05:27:52;100340.73;;;17.87;77.42
23635;BME280;11994;51.038;16.974;2022-08-03T05:30:18;100345.81;;;17.92;77.72
23635;BME280;11994;51.038;16.974;2022-08-03T05:32:44;100343.78;;;17.97;77.75
23635;BME280;11994;51.038;16.974;2022-08-03T05:35:10;100346.58;;;18.02;77.83
23635;BME280;11994;51.038;16.974;2022-08-03T05:37:36;100349.02;;;18.07;78.03
23635;BME280;11994;51.038;16.974;2022-08-03T05:40:03;100349.78;;;18.09;78.01
23635;BME280;11994;51.038;16.974;2022-08-03T05:42:30;100349.22;;;18.19;78.29
23635;BME280;11994;51.038;16.974;2022-08-03T05:44:56;100352.77;;;18.37;78.45
23635;BME280;11994;51.038;16.974;2022-08-03T05:47:22;100354.12;;;18.52;78.30
23635;BME280;11994;51.038;16.974;2022-08-03T05:49:48;100356.13;;;18.64;78.11
23635;BME280;11994;51.038;16.974;2022-08-03T05:52:13;100352.91;;;18.75;77.93
23635;BME280;11994;51.038;16.974;2022-08-03T05:54:39;100351.14;;;18.82;77.84
23635;BME280;11994;51.038;16.974;2022-08-03T05:57:05;100351.27;;;18.96;78.02
23635;BME280;11994;51.038;16.974;2022-08-03T05:59:31;100355.67;;;19.04;77.78
23635;BME280;11994;51.038;16.974;2022-08-03T06:01:57;100358.59;;;19.15;77.83
23635;BME280;11994;51.038;16.974;2022-08-03T06:04:23;100362.73;;;19.29;77.81
23635;BME280;11994;51.038;16.974;2022-08-03T06:06:49;100353.77;;;19.46;77.61
23635;BME280;11994;51.038;16.974;2022-08-03T06:09:15;100362.50;;;19.56;77.34
23635;BME280;11994;51.038;16.974;2022-08-03T06:11:42;100364.63;;;19.72;77.47
23635;BME280;11994;51.038;16.974;2022-08-03T06:14:08;100366.80;;;19.88;77.27
23635;BME280;11994;51.038;16.974;2022-08-03T06:16:33;100365.11;;;20.01;77.05
23635;BME280;11994;51.038;16.974;2022-08-03T06:19:00;100363.59;;;20.20;76.86
23635;BME280;11994;51.038;16.974;2022-08-03T06:21:26;100359.72;;;20.32;76.57
23635;BME280;11994;51.038;16.974;2022-08-03T06:23:51;100362.22;;;20.49;76.42
23635;BME280;11994;51.038;16.974;2022-08-03T06:26:18;100366.58;;;20.64;76.31
23635;BME280;11994;51.038;16.974;2022-08-03T06:28:44;100360.13;;;20.82;76.16
23635;BME280;11994;51.038;16.974;2022-08-03T06:31:10;100357.19;;;20.94;76.09
23635;BME280;11994;51.038;16.974;2022-08-03T06:33:36;100369.66;;;21.07;75.81
23635;BME280;11994;51.038;16.974;2022-08-03T06:36:02;100360.69;;;21.22;75.51
23635;BME280;11994;51.038;16.974;2022-08-03T06:38:28;100358.84;;;21.37;74.98
23635;BME280;11994;51.038;16.974;2022-08-03T06:40:54;100363.44;;;21.54;74.66
23635;BME280;11994;51.038;16.974;2022-08-03T06:43:20;100371.08;;;21.67;73.96
23635;BME280;11994;51.038;16.974;2022-08-03T06:45:46;100365.66;;;21.81;73.89
23635;BME280;11994;51.038;16.974;2022-08-03T06:48:12;100369.72;;;21.94;73.71
23635;BME280;11994;51.038;16.974;2022-08-03T06:50:40;100377.36;;;22.12;73.19
23635;BME280;11994;51.038;16.974;2022-08-03T06:53:07;100368.87;;;22.25;72.81
23635;BME280;11994;51.038;16.974;2022-08-03T06:55:34;100375.82;;;22.40;72.57
23635;BME280;11994;51.038;16.974;2022-08-03T06:57:59;100370.42;;;22.54;72.27
23635;BME280;11994;51.038;16.974;2022-08-03T07:00:26;100368.12;;;22.68;71.43
23635;BME280;11994;51.038;16.974;2022-08-03T07:02:52;100368.70;;;22.78;71.06
23635;BME280;11994;51.038;16.974;2022-08-03T07:05:19;100363.08;;;22.88;70.52
23635;BME280;11994;51.038;16.974;2022-08-03T07:07:45;100365.61;;;23.02;70.49
23635;BME280;11994;51.038;16.974;2022-08-03T07:10:11;100365.33;;;23.12;70.70
23635;BME280;11994;51.038;16.974;2022-08-03T07:12:38;100363.50;;;23.25;70.49
23635;BME280;11994;51.038;16.974;2022-08-03T07:15:06;100360.84;;;23.43;70.27
23635;BME280;11994;51.038;16.974;2022-08-03T07:17:34;100363.60;;;23.60;69.42
23635;BME280;11994;51.038;16.974;2022-08-03T07:20:06;100364.65;;;23.75;69.02
23635;BME280;11994;51.038;16.974;2022-08-03T07:22:32;100359.52;;;23.90;68.39
23635;BME280;11994;51.038;16.974;2022-08-03T07:24:59;100362.76;;;24.06;67.87
23635;BME280;11994;51.038;16.974;2022-08-03T07:27:25;100366.57;;;24.20;67.14
23635;BME280;11994;51.038;16.974;2022-08-03T07:29:53;100361.38;;;24.35;66.49
23635;BME280;11994;51.038;16.974;2022-08-03T07:32:19;100368.59;;;24.46;65.92
23635;BME280;11994;51.038;16.974;2022-08-03T07:34:45;100362.80;;;24.57;65.36
23635;BME280;11994;51.038;16.974;2022-08-03T07:37:11;100365.86;;;24.69;65.19
23635;BME280;11994;51.038;16.974;2022-08-03T07:39:36;100354.15;;;24.81;64.72
23635;BME280;11994;51.038;16.974;2022-08-03T07:42:02;100356.08;;;24.90;64.19
23635;BME280;11994;51.038;16.974;2022-08-03T07:44:29;100355.25;;;25.01;64.13
23635;BME280;11994;51.038;16.974;2022-08-03T07:46:55;100352.31;;;25.09;63.42
23635;BME280;11994;51.038;16.974;2022-08-03T07:49:22;100360.36;;;25.20;63.54
23635;BME280;11994;51.038;16.974;2022-08-03T07:51:47;100357.81;;;25.30;62.03
23635;BME280;11994;51.038;16.974;2022-08-03T07:54:15;100352.17;;;25.38;61.76
23635;BME280;11994;51.038;16.974;2022-08-03T07:56:41;100352.66;;;25.43;61.73
23635;BME280;11994;51.038;16.974;2022-08-03T07:59:07;100347.48;;;25.51;60.75
23635;BME280;11994;51.038;16.974;2022-08-03T08:01:32;100355.28;;;25.60;60.58
23635;BME280;11994;51.038;16.974;2022-08-03T08:04:00;100364.19;;;25.71;60.70
23635;BME280;11994;51.038;16.974;2022-08-03T08:06:26;100358.77;;;25.82;60.42
23635;BME280;11994;51.038;16.974;2022-08-03T08:08:52;100360.08;;;25.88;59.52
23635;BME280;11994;51.038;16.974;2022-08-03T08:11:18;100357.78;;;25.94;59.40
23635;BME280;11994;51.038;16.974;2022-08-03T08:13:46;100357.73;;;26.00;59.86
23635;BME280;11994;51.038;16.974;2022-08-03T08:16:11;100356.09;;;26.14;59.50
23635;BME280;11994;51.038;16.974;2022-08-03T08:18:37;100354.45;;;26.22;59.46
23635;BME280;11994;51.038;16.974;2022-08-03T08:21:03;100358.44;;;26.33;58.57
23635;BME280;11994;51.038;16.974;2022-08-03T08:23:29;100356.56;;;26.39;58.29
23635;BME280;11994;51.038;16.974;2022-08-03T08:25:54;100355.87;;;26.47;57.90
23635;BME280;11994;51.038;16.974;2022-08-03T08:28:21;100357.69;;;26.57;57.79
23635;BME280;11994;51.038;16.974;2022-08-03T08:30:47;100357.39;;;26.66;57.96
23635;BME280;11994;51.038;16.974;2022-08-03T08:33:13;100354.61;;;26.77;56.61
23635;BME280;11994;51.038;16.974;2022-08-03T08:35:39;100358.18;;;26.87;55.66
23635;BME280;11994;51.038;16.974;2022-08-03T08:38:05;100361.48;;;26.90;54.97
23635;BME280;11994;51.038;16.974;2022-08-03T08:40:31;100361.42;;;26.96;55.94
23635;BME280;11994;51.038;16.974;2022-08-03T08:42:57;100349.84;;;27.05;55.68
23635;BME280;11994;51.038;16.974;2022-08-03T08:45:23;100354.02;;;27.18;55.32
23635;BME280;11994;51.038;16.974;2022-08-03T08:47:49;100362.51;;;27.29;54.80
23635;BME280;11994;51.038;16.974;2022-08-03T08:50:18;100352.61;;;27.39;52.93
23635;BME280;11994;51.038;16.974;2022-08-03T08:52:47;100351.45;;;27.41;53.81
23635;BME280;11994;51.038;16.974;2022-08-03T08:55:19;100350.77;;;27.49;52.04
23635;BME280;11994;51.038;16.974;2022-08-03T08:57:49;100353.42;;;27.54;52.49
23635;BME280;11994;51.038;16.974;2022-08-03T09:00:16;100348.08;;;27.58;52.68
23635;BME280;11994;51.038;16.974;2022-08-03T09:02:44;100349.30;;;27.69;52.74
23635;BME280;11994;51.038;16.974;2022-08-03T09:05:14;100351.06;;;27.80;53.00
23635;BME280;11994;51.038;16.974;2022-08-03T09:07:43;100349.64;;;27.85;52.41
23635;BME280;11994;51.038;16.974;2022-08-03T09:10:12;100345.23;;;27.94;51.79
23635;BME280;11994;51.038;16.974;2022-08-03T09:12:41;100348.58;;;28.01;51.75
23635;BME280;11994;51.038;16.974;2022-08-03T09:15:29;100346.17;;;28.08;51.64
23635;BME280;11994;51.038;16.974;2022-08-03T09:17:59;100347.16;;;28.16;51.22
23635;BME280;11994;51.038;16.974;2022-08-03T09:20:28;100351.69;;;28.16;51.40
23635;BME280;11994;51.038;16.974;2022-08-03T09:22:59;100349.91;;;28.20;51.59
23635;BME280;11994;51.038;16.974;2022-08-03T09:25:29;100348.20;;;28.19;51.10
23635;BME280;11994;51.038;16.974;2022-08-03T09:28:09;100343.72;;;28.24;50.91
23635;BME280;11994;51.038;16.974;2022-08-03T09:30:42;100341.65;;;28.31;50.65
23635;BME280;11994;51.038;16.974;2022-08-03T09:33:13;100336.84;;;28.44;49.98
23635;BME280;11994;51.038;16.974;2022-08-03T09:35:43;100342.36;;;28.52;50.03
23635;BME280;11994;51.038;16.974;2022-08-03T09:38:15;100334.53;;;28.59;49.55
23635;BME280;11994;51.038;16.974;2022-08-03T09:40:44;100338.37;;;28.56;49.51
23635;BME280;11994;51.038;16.974;2022-08-03T09:43:11;100341.84;;;28.62;48.56
23635;BME280;11994;51.038;16.974;2022-08-03T09:45:38;100334.50;;;28.68;48.62
23635;BME280;11994;51.038;16.974;2022-08-03T09:50:53;100335.67;;;28.79;48.22
23635;BME280;11994;51.038;16.974;2022-08-03T09:53:21;100323.23;;;28.73;48.13
23635;BME280;11994;51.038;16.974;2022-08-03T09:58:24;100334.73;;;28.84;47.35
23635;BME280;11994;51.038;16.974;2022-08-03T10:03:36;100317.03;;;28.76;46.21
23635;BME280;11994;51.038;16.974;2022-08-03T10:06:19;100312.78;;;28.74;47.25
23635;BME280;11994;51.038;16.974;2022-08-03T10:08:51;100315.48;;;28.74;47.65
23635;BME280;11994;51.038;16.974;2022-08-03T10:11:29;100320.28;;;28.89;47.22
23635;BME280;11994;51.038;16.974;2022-08-03T10:13:57;100319.11;;;29.01;47.07
23635;BME280;11994;51.038;16.974;2022-08-03T10:16:23;100305.39;;;29.12;46.66
23635;BME280;11994;51.038;16.974;2022-08-03T10:18:48;100307.84;;;29.19;46.59
23635;BME280;11994;51.038;16.974;2022-08-03T10:21:16;100308.59;;;29.25;46.46
23635;BME280;11994;51.038;16.974;2022-08-03T10:23:44;100306.89;;;29.24;45.71
23635;BME280;11994;51.038;16.974;2022-08-03T10:26:12;100301.30;;;29.26;45.74
23635;BME280;11994;51.038;16.974;2022-08-03T10:28:45;100303.86;;;29.27;45.05
23635;BME280;11994;51.038;16.974;2022-08-03T10:31:12;100303.58;;;29.30;45.57
23635;BME280;11994;51.038;16.974;2022-08-03T10:33:45;100297.63;;;29.27;45.37
23635;BME280;11994;51.038;16.974;2022-08-03T10:36:12;100303.52;;;29.26;45.74
23635;BME280;11994;51.038;16.974;2022-08-03T10:38:50;100301.02;;;29.29;45.55
23635;BME280;11994;51.038;16.974;2022-08-03T10:41:21;100298.91;;;29.36;44.24
23635;BME280;11994;51.038;16.974;2022-08-03T10:43:57;100307.98;;;29.49;45.35
23635;BME280;11994;51.038;16.974;2022-08-03T10:46:26;100298.56;;;29.53;45.35
23635;BME280;11994;51.038;16.974;2022-08-03T10:48:53;100299.92;;;29.53;45.50
23635;BME280;11994;51.038;16.974;2022-08-03T10:51:21;100306.64;;;29.62;44.97
23635;BME280;11994;51.038;16.974;2022-08-03T10:53:48;100304.99;;;29.65;44.89
23635;BME280;11994;51.038;16.974;2022-08-03T11:02:16;100303.08;;;29.79;45.15
23635;BME280;11994;51.038;16.974;2022-08-03T11:04:42;100296.64;;;29.76;44.79
23635;BME280;11994;51.038;16.974;2022-08-03T11:07:17;100297.99;;;29.76;44.10
23635;BME280;11994;51.038;16.974;2022-08-03T11:09:53;100293.66;;;29.83;43.76
23635;BME280;11994;51.038;16.974;2022-08-03T11:12:28;100288.09;;;29.85;43.44
23635;BME280;11994;51.038;16.974;2022-08-03T11:14:58;100290.90;;;29.79;43.77
23635;BME280;11994;51.038;16.974;2022-08-03T11:17:25;100293.27;;;29.78;41.76
23635;BME280;11994;51.038;16.974;2022-08-03T11:19:52;100290.79;;;29.67;41.89
23635;BME280;11994;51.038;16.974;2022-08-03T11:22:20;100281.59;;;29.60;42.30
23635;BME280;11994;51.038;16.974;2022-08-03T11:27:27;100289.66;;;29.56;41.36
23635;BME280;11994;51.038;16.974;2022-08-03T11:30:10;100288.02;;;29.59;40.96
23635;BME280;11994;51.038;16.974;2022-08-03T11:46:10;100275.77;;;30.08;39.23
23635;BME280;11994;51.038;16.974;2022-08-03T11:48:44;100277.83;;;30.10;39.85
23635;BME280;11994;51.038;16.974;2022-08-03T11:53:53;100266.88;;;30.15;39.85
23635;BME280;11994;51.038;16.974;2022-08-03T11:56:21;100267.37;;;30.15;40.10
23635;BME280;11994;51.038;16.974;2022-08-03T11:58:51;100262.83;;;30.19;40.84
23635;BME280;11994;51.038;16.974;2022-08-03T12:01:19;100258.80;;;30.23;41.49
23635;BME280;11994;51.038;16.974;2022-08-03T12:03:46;100253.42;;;30.27;39.95
23635;BME280;11994;51.038;16.974;2022-08-03T12:06:14;100253.34;;;30.19;40.97
23635;BME280;11994;51.038;16.974;2022-08-03T12:08:42;100252.86;;;30.20;40.04
23635;BME280;11994;51.038;16.974;2022-08-03T12:11:11;100253.38;;;30.23;40.29
23635;BME280;11994;51.038;16.974;2022-08-03T12:13:48;100257.15;;;30.30;40.40
23635;BME280;11994;51.038;16.974;2022-08-03T12:16:17;100249.36;;;30.27;40.10
23635;BME280;11994;51.038;16.974;2022-08-03T12:18:53;100244.95;;;30.26;39.37
23635;BME280;11994;51.038;16.974;2022-08-03T12:21:23;100247.66;;;30.30;37.61
23635;BME280;11994;51.038;16.974;2022-08-03T12:23:50;100245.30;;;30.31;37.79
23635;BME280;11994;51.038;16.974;2022-08-03T12:26:21;100250.11;;;30.37;37.70
23635;BME280;11994;51.038;16.974;2022-08-03T12:28:48;100236.38;;;30.39;37.68
23635;BME280;11994;51.038;16.974;2022-08-03T12:31:14;100235.73;;;30.41;38.05
23635;BME280;11994;51.038;16.974;2022-08-03T12:36:31;100239.27;;;30.37;37.01
23635;BME280;11994;51.038;16.974;2022-08-03T12:39:05;100233.84;;;30.41;38.32
23635;BME280;11994;51.038;16.974;2022-08-03T12:41:36;100235.60;;;30.50;36.64
23635;BME280;11994;51.038;16.974;2022-08-03T12:44:07;100234.71;;;30.42;36.60
23635;BME280;11994;51.038;16.974;2022-08-03T12:46:33;100236.38;;;30.39;37.08
23635;BME280;11994;51.038;16.974;2022-08-03T12:49:08;100235.81;;;30.31;37.35
23635;BME280;11994;51.038;16.974;2022-08-03T12:54:19;100225.99;;;30.26;37.04
23635;BME280;11994;51.038;16.974;2022-08-03T12:59:30;100228.02;;;30.28;37.16
23635;BME280;11994;51.038;16.974;2022-08-03T13:01:59;100219.22;;;30.30;37.41
23635;BME280;11994;51.038;16.974;2022-08-03T13:04:33;100221.01;;;30.43;35.53
23635;BME280;11994;51.038;16.974;2022-08-03T13:07:08;100220.83;;;30.45;36.15
23635;BME280;11994;51.038;16.974;2022-08-03T13:09:50;100223.07;;;30.53;35.93
23635;BME280;11994;51.038;16.974;2022-08-03T13:12:26;100228.34;;;30.55;34.93
23635;BME280;11994;51.038;16.974;2022-08-03T13:14:59;100226.80;;;30.52;35.63
23635;BME280;11994;51.038;16.974;2022-08-03T13:17:27;100231.72;;;30.57;35.69
23635;BME280;11994;51.038;16.974;2022-08-03T13:19:53;100225.99;;;30.60;34.91
23635;BME280;11994;51.038;16.974;2022-08-03T13:22:24;100221.74;;;30.57;35.07
23635;BME280;11994;51.038;16.974;2022-08-03T13:24:54;100216.33;;;30.57;35.07
23635;BME280;11994;51.038;16.974;2022-08-03T13:27:22;100223.44;;;30.58;34.90
23635;BME280;11994;51.038;16.974;2022-08-03T13:29:49;100215.83;;;30.62;35.32
23635;BME280;11994;51.038;16.974;2022-08-03T13:32:15;100213.87;;;30.72;35.45
23635;BME280;11994;51.038;16.974;2022-08-03T13:34:41;100214.55;;;30.74;35.07
23635;BME280;11994;51.038;16.974;2022-08-03T13:37:07;100215.76;;;30.71;36.06
23635;BME280;11994;51.038;16.974;2022-08-03T13:39:33;100213.70;;;30.69;35.45
23635;BME280;11994;51.038;16.974;2022-08-03T13:41:59;100216.69;;;30.62;35.41
23635;BME280;11994;51.038;16.974;2022-08-03T13:44:25;100216.69;;;30.62;34.67